Eric Mcallister — WDH6317 — position and weather

sailwx.info

Track history (hours):
 
Tides and Currents Weather Stations Pressure Air Temp Water Temp Dewpoint Dewpoint Depression Visibility Wind Speed Wind Dir Waves Ship Positions

Eric Mcallister

Owner: McAllister Towing & Transportation, Staten Island, NY. More information available from US FCC via Universal Licensing System and Coast Guard Vessel Documentation Center.

Last reported at 2018-Jan-18 13:30 UTC. Time now 2018-Jan-18 13:45 UTC.
Position N 40°39' W 074°05'.

Length 30 m; draft 4.4 m.

Type: Tug. MMSI: 367636710.

Date/timePositionNaut miles runAvg speedWind from/ knotsBaromVisibWave heightAir tempDewpointWater temp
2018-Jan-18 13:30N 40°39' W 074°05'2 4.3
2018-Jan-18 13:01N 40°38' W 074°03'2 4.4
2018-Jan-18 12:30N 40°39' W 074°06'3 4.2
2018-Jan-18 11:54N 40°40' W 074°09'0 0.0
2018-Jan-18 11:30N 40°40' W 074°09'1 2.6
2018-Jan-18 10:58N 40°39' W 074°09'2 5.3
2018-Jan-18 10:30N 40°39' W 074°06'3 5.4
2018-Jan-18 10:00N 40°37' W 074°03'1 1.5
2018-Jan-18 09:30N 40°37' W 074°02'3 5.1
2018-Jan-18 09:00N 40°39' W 074°04'4 3.0
2018-Jan-18 07:32N 40°39' W 074°10'0 6.3
2018-Jan-18 07:29N 40°39' W 074°10'3 6.8
2018-Jan-18 07:00N 40°39' W 074°06'2 4.8
2018-Jan-18 06:30N 40°39' W 074°09'2 3.5
2018-Jan-18 06:00N 40°41' W 074°09'1 1.6
2018-Jan-18 05:30N 40°40' W 074°08'2 4.2
2018-Jan-18 05:00N 40°38' W 074°10'0 0.0
2018-Jan-18 04:29N 40°38' W 074°10'0 0.0
2018-Jan-18 04:00N 40°38' W 074°10'0 0.0
2018-Jan-18 03:30N 40°38' W 074°10'0 0.0
2018-Jan-18 02:58N 40°38' W 074°10'0 0.7
2018-Jan-18 02:30N 40°39' W 074°10'0 1.0
2018-Jan-18 02:00N 40°39' W 074°09'1 2.8
2018-Jan-18 01:30N 40°39' W 074°11'1 1.9
2018-Jan-18 01:00N 40°39' W 074°10'2 2.2
2018-Jan-18 00:00N 40°40' W 074°08'0 0.1
2018-Jan-17 23:56N 40°40' W 074°08'  
2018-Jan-12 14:59N 40°40' W 074°08'0 0.4
2018-Jan-12 14:30N 40°40' W 074°08'1 2.3
2018-Jan-12 14:00N 40°39' W 074°09'2 5.0
2018-Jan-12 13:30N 40°39' W 074°06'3 5.2
2018-Jan-12 13:00N 40°37' W 074°03'1 2.1
2018-Jan-12 12:30N 40°38' W 074°04'1 2.4
2018-Jan-12 12:00N 40°39' W 074°04'4 8.7
2018-Jan-12 11:30N 40°39' W 074°10'0 0.7
2018-Jan-12 10:59N 40°38' W 074°10'0 0.0
2018-Jan-12 10:30N 40°38' W 074°10'0 0.0
2018-Jan-12 10:00N 40°38' W 074°10'0 0.0
2018-Jan-12 09:30N 40°38' W 074°10'0 0.0
2018-Jan-12 09:00N 40°38' W 074°10'0 0.0
2018-Jan-12 08:30N 40°38' W 074°10'0 0.0
2018-Jan-12 08:00N 40°38' W 074°10'0 0.0
2018-Jan-12 07:30N 40°38' W 074°10'0 0.0
2018-Jan-12 07:00N 40°38' W 074°10'0 0.0
2018-Jan-12 06:30N 40°38' W 074°10'0 0.0
2018-Jan-12 05:59N 40°38' W 074°10'0 0.0
2018-Jan-12 05:30N 40°38' W 074°10'0 0.0
2018-Jan-12 04:59N 40°38' W 074°10'0 0.0
2018-Jan-12 04:30N 40°38' W 074°10'0 0.0
2018-Jan-12 04:00N 40°38' W 074°10'3 6.3
2018-Jan-12 03:30N 40°39' W 074°06'1 2.3
2018-Jan-12 02:59N 40°39' W 074°07'2 3.2
2018-Jan-12 02:30N 40°40' W 074°08'1 2.0
2018-Jan-12 02:00N 40°41' W 074°09'3 1.7
2018-Jan-12 00:29N 40°38' W 074°10'1 0.5
2018-Jan-11 22:40N 40°39' W 074°09'1 9.5
2018-Jan-11 22:30N 40°39' W 074°07'2 1.8
2018-Jan-11 21:37N 40°39' W 074°09'0 4.1
2018-Jan-11 21:30N 40°40' W 074°09'1 0.9
2018-Jan-11 20:24N 40°41' W 074°09'1 1.3
2018-Jan-11 19:15N 40°39' W 074°09'0 1.3
2018-Jan-11 19:00N 40°40' W 074°09'0 0.6
2018-Jan-11 18:29N 40°39' W 074°09'2 4.2
2018-Jan-11 17:53N 40°39' W 074°06'2 4.2
2018-Jan-11 17:24N 40°38' W 074°04'0 0.5
2018-Jan-11 17:00N 40°37' W 074°03'0 0.1
2018-Jan-11 16:30N 40°37' W 074°03'1 1.8
2018-Jan-11 16:00N 40°37' W 074°03'0 0.9
2018-Jan-11 15:30N 40°37' W 074°03'1 2.8
2018-Jan-11 15:00N 40°38' W 074°04'5 1.6
2018-Jan-11 12:02N 40°39' W 074°10'1 8.5
2018-Jan-11 11:54N 40°40' W 074°09'0 0.8
2018-Jan-11 11:18N 40°40' W 074°09'1 3.7
2018-Jan-11 10:54N 40°39' W 074°09'2 6.0
2018-Jan-11 10:30N 40°39' W 074°06'3 6.8
2018-Jan-11 10:00N 40°36' W 074°03'1 1.2
2018-Jan-11 09:29N 40°37' W 074°03'3 4.9
2018-Jan-11 08:58N 40°39' W 074°05'4 1.4
2018-Jan-11 06:19N 40°38' W 074°10'0 0.0
2018-Jan-11 05:59N 40°38' W 074°10'0 0.0
2018-Jan-11 05:30N 40°38' W 074°10'0 0.0
2018-Jan-11 04:20N 40°38' W 074°10'1 1.0
2018-Jan-11 03:17N 40°39' W 074°11'0 0.1
2018-Jan-11 02:47N 40°39' W 074°11'2 0.8
2018-Jan-11 00:19N 40°39' W 074°09'1 1.7
2018-Jan-10 23:58N 40°40' W 074°09'0 0.2
2018-Jan-10 23:28N 40°40' W 074°09'1 2.9
2018-Jan-10 22:59N 40°41' W 074°08'1 1.0
2018-Jan-10 22:12N 40°42' W 074°08'3 0.7
2018-Jan-10 17:27N 40°39' W 074°10'410.2
2018-Jan-10 17:00N 40°39' W 074°04'1 1.4
2018-Jan-10 16:26N 40°40' W 074°05'0 0.8
2018-Jan-10 16:00N 40°40' W 074°04'3 4.2
2018-Jan-10 15:21N 40°37' W 074°03'0 0.5
2018-Jan-10 15:00N 40°38' W 074°03'3 4.5
2018-Jan-10 14:24N 40°39' W 074°07'2 4.4
2018-Jan-10 14:00N 40°39' W 074°09'2 1.4
2018-Jan-10 12:42N 40°41' W 074°09'3 2.1
2018-Jan-10 11:21N 40°39' W 074°11'0 0.1
2018-Jan-10 10:56N 40°39' W 074°11'1 1.7
2018-Jan-10 10:27N 40°39' W 074°10'3 6.5
2018-Jan-10 10:00N 40°39' W 074°06'3 4.6
2018-Jan-10 09:22N 40°37' W 074°03'4 1.5
2018-Jan-10 06:33N 40°39' W 074°09'112.4
2018-Jan-10 06:28N 40°39' W 074°07'2 2.1
2018-Jan-10 05:45N 40°40' W 074°09'1 1.3
2018-Jan-10 04:40N 40°41' W 074°09'2 0.8
2018-Jan-10 01:49N 40°39' W 074°10'1 0.5
2018-Jan-10 00:19N 40°39' W 074°09'2 5.1
2018-Jan-10 00:00N 40°39' W 074°07'3 5.7
2018-Jan-09 23:30N 40°38' W 074°03'1 1.6
2018-Jan-09 23:00N 40°37' W 074°03'5 3.0
2018-Jan-09 21:14N 40°39' W 074°10'1 3.8
2018-Jan-09 21:00N 40°38' W 074°09'2 3.7
2018-Jan-09 20:30N 40°40' W 074°08'1 0.5
2018-Jan-09 17:50N 40°42' W 074°08'3 7.5
2018-Jan-09 17:25N 40°39' W 074°10'0 0.1
2018-Jan-09 14:44N 40°39' W 074°10'1 3.7
2018-Jan-09 14:29N 40°39' W 074°09'4 9.3
2018-Jan-09 14:00N 40°40' W 074°03'2 4.6
2018-Jan-09 13:30N 40°41' W 074°01'0 0.1
2018-Jan-09 13:01N 40°41' W 074°01'6 2.8
2018-Jan-09 10:46N 40°40' W 074°09'0 0.6
2018-Jan-09 10:30N 40°40' W 074°09'0 0.4
2018-Jan-09 10:00N 40°40' W 074°09'2 0.4
2018-Jan-09 05:22N 40°39' W 074°07'2 0.5
2018-Jan-09 01:58N 40°39' W 074°09'1 2.7
2018-Jan-09 01:29N 40°41' W 074°09'0 0.4
2018-Jan-09 00:57N 40°41' W 074°09'2 4.0
2018-Jan-09 00:27N 40°39' W 074°09'3 4.7
2018-Jan-08 23:54N 40°39' W 074°05'2 5.3
2018-Jan-08 23:30N 40°38' W 074°03'2 1.9
2018-Jan-08 22:34N 40°36' W 074°02'0 2.6
2018-Jan-08 22:28N 40°36' W 074°03'2 5.1
2018-Jan-08 22:00N 40°38' W 074°04'1 0.4
2018-Jan-08 18:54N 40°39' W 074°05'3 0.8
2018-Jan-08 15:36N 40°39' W 074°09'0 2.3
2018-Jan-08 15:29N 40°40' W 074°09'0 0.4
2018-Jan-08 14:58N 40°40' W 074°09'1 2.6
2018-Jan-08 14:30N 40°38' W 074°09'4 7.1
2018-Jan-08 14:00N 40°39' W 074°04'  
Track history (hours):
 
Tides and Currents Weather Stations Pressure Air Temp Water Temp Dewpoint Dewpoint Depression Visibility Wind Speed Wind Dir Waves Ship Positions

Eric Mcallister

Owner: McAllister Towing & Transportation, Staten Island, NY. More information available from US FCC via Universal Licensing System and Coast Guard Vessel Documentation Center.

Last reported at 2018-Jan-18 13:30 UTC. Time now 2018-Jan-18 13:45 UTC.
Position N 40°39' W 074°05'.

Length 30 m; draft 4.4 m.

Type: Tug. MMSI: 367636710.

Date/timePositionNaut miles runAvg speedWind from/ knotsBaromVisibWave heightAir tempDewpointWater temp
2018-Jan-18 13:30N 40°39' W 074°05'2 4.3
2018-Jan-18 13:01N 40°38' W 074°03'2 4.4
2018-Jan-18 12:30N 40°39' W 074°06'3 4.2
2018-Jan-18 11:54N 40°40' W 074°09'0 0.0
2018-Jan-18 11:30N 40°40' W 074°09'1 2.6
2018-Jan-18 10:58N 40°39' W 074°09'2 5.3
2018-Jan-18 10:30N 40°39' W 074°06'3 5.4
2018-Jan-18 10:00N 40°37' W 074°03'1 1.5
2018-Jan-18 09:30N 40°37' W 074°02'3 5.1
2018-Jan-18 09:00N 40°39' W 074°04'4 3.0
2018-Jan-18 07:32N 40°39' W 074°10'0 6.3
2018-Jan-18 07:29N 40°39' W 074°10'3 6.8
2018-Jan-18 07:00N 40°39' W 074°06'2 4.8
2018-Jan-18 06:30N 40°39' W 074°09'2 3.5
2018-Jan-18 06:00N 40°41' W 074°09'1 1.6
2018-Jan-18 05:30N 40°40' W 074°08'2 4.2
2018-Jan-18 05:00N 40°38' W 074°10'0 0.0
2018-Jan-18 04:29N 40°38' W 074°10'0 0.0
2018-Jan-18 04:00N 40°38' W 074°10'0 0.0
2018-Jan-18 03:30N 40°38' W 074°10'0 0.0
2018-Jan-18 02:58N 40°38' W 074°10'0 0.7
2018-Jan-18 02:30N 40°39' W 074°10'0 1.0
2018-Jan-18 02:00N 40°39' W 074°09'1 2.8
2018-Jan-18 01:30N 40°39' W 074°11'1 1.9
2018-Jan-18 01:00N 40°39' W 074°10'2 2.2
2018-Jan-18 00:00N 40°40' W 074°08'0 0.1
2018-Jan-17 23:56N 40°40' W 074°08'  
2018-Jan-12 14:59N 40°40' W 074°08'0 0.4
2018-Jan-12 14:30N 40°40' W 074°08'1 2.3
2018-Jan-12 14:00N 40°39' W 074°09'2 5.0
2018-Jan-12 13:30N 40°39' W 074°06'3 5.2
2018-Jan-12 13:00N 40°37' W 074°03'1 2.1
2018-Jan-12 12:30N 40°38' W 074°04'1 2.4
2018-Jan-12 12:00N 40°39' W 074°04'4 8.7
2018-Jan-12 11:30N 40°39' W 074°10'0 0.7
2018-Jan-12 10:59N 40°38' W 074°10'0 0.0
2018-Jan-12 10:30N 40°38' W 074°10'0 0.0
2018-Jan-12 10:00N 40°38' W 074°10'0 0.0
2018-Jan-12 09:30N 40°38' W 074°10'0 0.0
2018-Jan-12 09:00N 40°38' W 074°10'0 0.0
2018-Jan-12 08:30N 40°38' W 074°10'0 0.0
2018-Jan-12 08:00N 40°38' W 074°10'0 0.0
2018-Jan-12 07:30N 40°38' W 074°10'0 0.0
2018-Jan-12 07:00N 40°38' W 074°10'0 0.0
2018-Jan-12 06:30N 40°38' W 074°10'0 0.0
2018-Jan-12 05:59N 40°38' W 074°10'0 0.0
2018-Jan-12 05:30N 40°38' W 074°10'0 0.0
2018-Jan-12 04:59N 40°38' W 074°10'0 0.0
2018-Jan-12 04:30N 40°38' W 074°10'0 0.0
2018-Jan-12 04:00N 40°38' W 074°10'3 6.3
2018-Jan-12 03:30N 40°39' W 074°06'1 2.3
2018-Jan-12 02:59N 40°39' W 074°07'2 3.2
2018-Jan-12 02:30N 40°40' W 074°08'1 2.0
2018-Jan-12 02:00N 40°41' W 074°09'3 1.7
2018-Jan-12 00:29N 40°38' W 074°10'1 0.5
2018-Jan-11 22:40N 40°39' W 074°09'1 9.5
2018-Jan-11 22:30N 40°39' W 074°07'2 1.8
2018-Jan-11 21:37N 40°39' W 074°09'0 4.1
2018-Jan-11 21:30N 40°40' W 074°09'1 0.9
2018-Jan-11 20:24N 40°41' W 074°09'1 1.3
2018-Jan-11 19:15N 40°39' W 074°09'0 1.3
2018-Jan-11 19:00N 40°40' W 074°09'0 0.6
2018-Jan-11 18:29N 40°39' W 074°09'2 4.2
2018-Jan-11 17:53N 40°39' W 074°06'2 4.2
2018-Jan-11 17:24N 40°38' W 074°04'0 0.5
2018-Jan-11 17:00N 40°37' W 074°03'0 0.1
2018-Jan-11 16:30N 40°37' W 074°03'1 1.8
2018-Jan-11 16:00N 40°37' W 074°03'0 0.9
2018-Jan-11 15:30N 40°37' W 074°03'1 2.8
2018-Jan-11 15:00N 40°38' W 074°04'5 1.6
2018-Jan-11 12:02N 40°39' W 074°10'1 8.5
2018-Jan-11 11:54N 40°40' W 074°09'0 0.8
2018-Jan-11 11:18N 40°40' W 074°09'1 3.7
2018-Jan-11 10:54N 40°39' W 074°09'2 6.0
2018-Jan-11 10:30N 40°39' W 074°06'3 6.8
2018-Jan-11 10:00N 40°36' W 074°03'1 1.2
2018-Jan-11 09:29N 40°37' W 074°03'3 4.9
2018-Jan-11 08:58N 40°39' W 074°05'4 1.4
2018-Jan-11 06:19N 40°38' W 074°10'0 0.0
2018-Jan-11 05:59N 40°38' W 074°10'0 0.0
2018-Jan-11 05:30N 40°38' W 074°10'0 0.0
2018-Jan-11 04:20N 40°38' W 074°10'1 1.0
2018-Jan-11 03:17N 40°39' W 074°11'0 0.1
2018-Jan-11 02:47N 40°39' W 074°11'2 0.8
2018-Jan-11 00:19N 40°39' W 074°09'1 1.7
2018-Jan-10 23:58N 40°40' W 074°09'0 0.2
2018-Jan-10 23:28N 40°40' W 074°09'1 2.9
2018-Jan-10 22:59N 40°41' W 074°08'1 1.0
2018-Jan-10 22:12N 40°42' W 074°08'3 0.7
2018-Jan-10 17:27N 40°39' W 074°10'410.2
2018-Jan-10 17:00N 40°39' W 074°04'1 1.4
2018-Jan-10 16:26N 40°40' W 074°05'0 0.8
2018-Jan-10 16:00N 40°40' W 074°04'3 4.2
2018-Jan-10 15:21N 40°37' W 074°03'0 0.5
2018-Jan-10 15:00N 40°38' W 074°03'3 4.5
2018-Jan-10 14:24N 40°39' W 074°07'2 4.4
2018-Jan-10 14:00N 40°39' W 074°09'2 1.4
2018-Jan-10 12:42N 40°41' W 074°09'3 2.1
2018-Jan-10 11:21N 40°39' W 074°11'0 0.1
2018-Jan-10 10:56N 40°39' W 074°11'1 1.7
2018-Jan-10 10:27N 40°39' W 074°10'3 6.5
2018-Jan-10 10:00N 40°39' W 074°06'3 4.6
2018-Jan-10 09:22N 40°37' W 074°03'4 1.5
2018-Jan-10 06:33N 40°39' W 074°09'112.4
2018-Jan-10 06:28N 40°39' W 074°07'2 2.1
2018-Jan-10 05:45N 40°40' W 074°09'1 1.3
2018-Jan-10 04:40N 40°41' W 074°09'2 0.8
2018-Jan-10 01:49N 40°39' W 074°10'1 0.5
2018-Jan-10 00:19N 40°39' W 074°09'2 5.1
2018-Jan-10 00:00N 40°39' W 074°07'3 5.7
2018-Jan-09 23:30N 40°38' W 074°03'1 1.6
2018-Jan-09 23:00N 40°37' W 074°03'5 3.0
2018-Jan-09 21:14N 40°39' W 074°10'1 3.8
2018-Jan-09 21:00N 40°38' W 074°09'2 3.7
2018-Jan-09 20:30N 40°40' W 074°08'1 0.5
2018-Jan-09 17:50N 40°42' W 074°08'3 7.5
2018-Jan-09 17:25N 40°39' W 074°10'0 0.1
2018-Jan-09 14:44N 40°39' W 074°10'1 3.7
2018-Jan-09 14:29N 40°39' W 074°09'4 9.3
2018-Jan-09 14:00N 40°40' W 074°03'2 4.6
2018-Jan-09 13:30N 40°41' W 074°01'0 0.1
2018-Jan-09 13:01N 40°41' W 074°01'6 2.8
2018-Jan-09 10:46N 40°40' W 074°09'0 0.6
2018-Jan-09 10:30N 40°40' W 074°09'0 0.4
2018-Jan-09 10:00N 40°40' W 074°09'2 0.4
2018-Jan-09 05:22N 40°39' W 074°07'2 0.5
2018-Jan-09 01:58N 40°39' W 074°09'1 2.7
2018-Jan-09 01:29N 40°41' W 074°09'0 0.4
2018-Jan-09 00:57N 40°41' W 074°09'2 4.0
2018-Jan-09 00:27N 40°39' W 074°09'3 4.7
2018-Jan-08 23:54N 40°39' W 074°05'2 5.3
2018-Jan-08 23:30N 40°38' W 074°03'2 1.9
2018-Jan-08 22:34N 40°36' W 074°02'0 2.6
2018-Jan-08 22:28N 40°36' W 074°03'2 5.1
2018-Jan-08 22:00N 40°38' W 074°04'1 0.4
2018-Jan-08 18:54N 40°39' W 074°05'3 0.8
2018-Jan-08 15:36N 40°39' W 074°09'0 2.3
2018-Jan-08 15:29N 40°40' W 074°09'0 0.4
2018-Jan-08 14:58N 40°40' W 074°09'1 2.6
2018-Jan-08 14:30N 40°38' W 074°09'4 7.1
2018-Jan-08 14:00N 40°39' W 074°04'  

Dump ship's entire track history